Estero, Florida
Current Conditions -  °F | °C
As of 12:53 PM on Sunday 21 Dec 2014 (Local Time) from KRSW Reporting Station
Overcast Overcast  
Wind Chill: 76°   Ceiling: 9000
Heat Index: 76°   Visibility: 10mi
Dew Point: 65°   Wind: 12mph
Humidity: 69%   Direction: 160°SSE
Pressure: 30.04"   Gusts: NA
Location:  26.44°N, 81.81°W
Report Text: KRSW 211753Z 16010KT 10SM OVC090 24/18 A3004 RMK AO2 SLP171 T02440183 10250 20156 58021
Loading
Personal Weather Stations






























Interactive Weather Map New forecast layout! Learn more

10-Day Weather Forecast

Advertisements
Track Severe Weather on mobile